Peter R. Weiss — WDF8566 — position and weather

sailwx.info

Track history (hours):
 
Tides and Currents Weather Stations Pressure Air Temp Water Temp Dewpoint Dewpoint Depression Visibility Wind Speed Wind Dir Waves Ship Positions

Peter R. Weiss

Owner: Billybey Ferry Company LLC, Weehawken, NJ. More information available from US FCC via Universal Licensing System and Coast Guard Vessel Documentation Center.

Last reported at 2017-Dec-15 14:13 UTC. Time now 2017-Dec-18 17:02 UTC.
Position N 40°42' W 073°58'.

Length 26 m.

Type: Passenger vessel. MMSI: 367496240.

Date/timePositionNaut miles runAvg speedWind from/ knotsBaromVisibWave heightAir tempDewpointWater temp
2017-Dec-15 14:13N 40°42' W 073°58'0 0.0
2017-Dec-15 14:00N 40°42' W 073°58'0 0.0
2017-Dec-15 13:30N 40°42' W 073°58'0 0.0
2017-Dec-15 00:57N 40°42' W 073°58'0 0.0
2017-Dec-15 00:30N 40°42' W 073°58'0 0.0
2017-Dec-14 18:30N 40°42' W 073°58'0 0.0
2017-Dec-14 18:00N 40°42' W 073°58'0 0.0
2017-Dec-14 17:30N 40°42' W 073°58'0 0.0
2017-Dec-14 17:00N 40°42' W 073°58'0 0.0
2017-Dec-14 16:30N 40°42' W 073°58'0 0.0
2017-Dec-14 16:00N 40°42' W 073°58'0 0.0
2017-Dec-14 15:00N 40°42' W 073°58'0 0.0
2017-Dec-14 14:30N 40°42' W 073°58'0 0.0
2017-Dec-14 14:00N 40°42' W 073°58'  
2017-Dec-11 19:11N 40°42' W 073°58'1 3.5
2017-Dec-11 19:00N 40°42' W 073°59'1 1.2
2017-Dec-11 18:30N 40°42' W 073°58'2 3.2
2017-Dec-11 18:01N 40°42' W 074°00'2 3.1
2017-Dec-11 17:30N 40°42' W 073°58'1 1.5
2017-Dec-11 17:00N 40°42' W 073°59'  
2017-Dec-07 19:26N 40°42' W 073°58'2 3.8
2017-Dec-07 19:00N 40°42' W 074°00'1 1.6
2017-Dec-07 18:30N 40°42' W 073°59'1 1.7
2017-Dec-07 18:00N 40°42' W 074°00'2 3.1
2017-Dec-07 17:30N 40°42' W 073°58'0 0.0
2017-Dec-07 17:00N 40°42' W 073°58'  
Track history (hours):
 
Tides and Currents Weather Stations Pressure Air Temp Water Temp Dewpoint Dewpoint Depression Visibility Wind Speed Wind Dir Waves Ship Positions

Peter R. Weiss

Owner: Billybey Ferry Company LLC, Weehawken, NJ. More information available from US FCC via Universal Licensing System and Coast Guard Vessel Documentation Center.

Last reported at 2017-Dec-15 14:13 UTC. Time now 2017-Dec-18 17:02 UTC.
Position N 40°42' W 073°58'.

Length 26 m.

Type: Passenger vessel. MMSI: 367496240.

Date/timePositionNaut miles runAvg speedWind from/ knotsBaromVisibWave heightAir tempDewpointWater temp
2017-Dec-15 14:13N 40°42' W 073°58'0 0.0
2017-Dec-15 14:00N 40°42' W 073°58'0 0.0
2017-Dec-15 13:30N 40°42' W 073°58'0 0.0
2017-Dec-15 00:57N 40°42' W 073°58'0 0.0
2017-Dec-15 00:30N 40°42' W 073°58'0 0.0
2017-Dec-14 18:30N 40°42' W 073°58'0 0.0
2017-Dec-14 18:00N 40°42' W 073°58'0 0.0
2017-Dec-14 17:30N 40°42' W 073°58'0 0.0
2017-Dec-14 17:00N 40°42' W 073°58'0 0.0
2017-Dec-14 16:30N 40°42' W 073°58'0 0.0
2017-Dec-14 16:00N 40°42' W 073°58'0 0.0
2017-Dec-14 15:00N 40°42' W 073°58'0 0.0
2017-Dec-14 14:30N 40°42' W 073°58'0 0.0
2017-Dec-14 14:00N 40°42' W 073°58'  
2017-Dec-11 19:11N 40°42' W 073°58'1 3.5
2017-Dec-11 19:00N 40°42' W 073°59'1 1.2
2017-Dec-11 18:30N 40°42' W 073°58'2 3.2
2017-Dec-11 18:01N 40°42' W 074°00'2 3.1
2017-Dec-11 17:30N 40°42' W 073°58'1 1.5
2017-Dec-11 17:00N 40°42' W 073°59'  
2017-Dec-07 19:26N 40°42' W 073°58'2 3.8
2017-Dec-07 19:00N 40°42' W 074°00'1 1.6
2017-Dec-07 18:30N 40°42' W 073°59'1 1.7
2017-Dec-07 18:00N 40°42' W 074°00'2 3.1
2017-Dec-07 17:30N 40°42' W 073°58'0 0.0
2017-Dec-07 17:00N 40°42' W 073°58'  

Dump ship's entire track history